KMRC/MRC METAR and TAF weather

Enter ICAO airport designator
Station Type Date Time Source
KMRC METAR 2019/10/14 05:35 UTC NOAA

KMRC 140535Z AUTO 00000KT 10SM CLR 07/07 A3007 RMK A01


Station Type Date Time Source
KMRC Decoded METAR 2019/10/14 05:35 UTC NOAA

Columbia / Maury County, TN, United States (KMRC) 35-33N 087-11W
Oct 14, 2019 - 01:35 AM EDT / 2019.10.14 0535 UTC
Wind: Calm:0
Visibility: 10 mile(s):0
Sky conditions: clear
Temperature: 44 F (7 C)
Dew Point: 44 F (7 C)
Relative Humidity: 100%
Pressure (altimeter): 30.07 in. Hg (1018 hPa)
ob: KMRC 140535Z AUTO 00000KT 10SM CLR 07/07 A3007 RMK A01
cycle: 5

Station Type Date Time Source
KMRC TAF 2009/08/31 19:45 UTC NOAA

METAR KMRC 311945Z AUTO 06008KT 10SM CLR 26/12 A3010
RMK AO1 T02550116 $

Example: see airport list